Squaw Point, Colorado
Current Conditions -  °F | °C
As of 12:35 PM on Saturday 25 Oct 2014 (Local Time) from KBDG Reporting Station
Clear Clear  
Wind Chill: 67°   Ceiling: Unl
Heat Index: 67°   Visibility: 10mi
Dew Point: 31°   Wind: 3mph
Humidity: 27%   Direction: 190°S
Pressure: 30.37"   Gusts: NA
Location:  37.74°N, 108.957°W
Report Text: KBDG 251835Z AUTO 19003KT 10SM CLR 19/00 A3037 RMK AO1 T01921005
Loading
Personal Weather Stations






























Interactive Weather Map
Tropical Storm Tracking
New forecast layout! Learn more

10-Day Weather Forecast

Advertisements
Track Severe Weather on mobile